createdAt,value
2019-05-10T00:00:38.291Z,8.62
2019-05-10T00:01:38.317Z,8.65
2019-05-10T00:02:38.257Z,8.62
2019-05-10T00:03:38.257Z,8.53
2019-05-10T00:04:38.240Z,8.56
2019-05-10T00:05:38.249Z,8.70
2019-05-10T00:06:38.280Z,8.57
2019-05-10T00:07:38.242Z,8.53
2019-05-10T00:08:38.225Z,8.60
2019-05-10T00:09:38.181Z,8.56
2019-05-10T00:10:38.187Z,8.59
2019-05-10T00:11:38.171Z,8.55
2019-05-10T00:12:38.154Z,8.63
2019-05-10T00:13:38.182Z,8.53
2019-05-10T00:14:38.160Z,8.53
2019-05-10T00:15:38.123Z,8.52
2019-05-10T00:16:38.109Z,8.50
2019-05-10T00:17:38.145Z,8.49
2019-05-10T00:18:38.094Z,8.49
2019-05-10T00:19:38.117Z,8.52
2019-05-10T00:20:38.070Z,8.47
2019-05-10T00:21:38.068Z,8.31
2019-05-10T00:22:38.052Z,8.46
2019-05-10T00:23:38.028Z,8.38
2019-05-10T00:24:38.014Z,8.37
2019-05-10T00:25:38.150Z,8.37
2019-05-10T00:26:38.042Z,8.34
2019-05-10T00:27:37.984Z,8.28
2019-05-10T00:28:37.973Z,8.42
2019-05-10T00:29:37.971Z,8.50
2019-05-10T00:30:37.976Z,8.46
2019-05-10T00:31:38.005Z,8.41
2019-05-10T00:32:37.949Z,8.37
2019-05-10T00:33:37.930Z,8.39
2019-05-10T00:34:37.911Z,8.35
2019-05-10T00:35:37.922Z,8.32
2019-05-10T00:36:37.908Z,8.28
2019-05-10T00:37:37.925Z,8.24
2019-05-10T00:38:37.903Z,8.32
2019-05-10T00:39:37.858Z,8.29
2019-05-10T00:40:37.876Z,8.26
2019-05-10T00:41:37.845Z,8.26
2019-05-10T00:42:37.820Z,8.28
2019-05-10T00:43:37.863Z,8.41
2019-05-10T00:44:37.848Z,8.44
2019-05-10T00:45:37.801Z,8.39
2019-05-10T00:46:37.791Z,8.32
2019-05-10T00:47:37.773Z,8.39
2019-05-10T00:48:37.770Z,8.39
2019-05-10T00:49:37.796Z,8.29
2019-05-10T00:50:37.742Z,8.38
2019-05-10T00:51:37.756Z,8.32
2019-05-10T00:52:37.723Z,8.38
2019-05-10T00:53:37.696Z,8.24
2019-05-10T00:54:37.793Z,8.31
2019-05-10T00:55:37.752Z,8.31
2019-05-10T00:56:37.672Z,8.31
2019-05-10T00:57:37.669Z,8.28
2019-05-10T00:58:37.646Z,8.17
2019-05-10T00:59:37.645Z,8.23
2019-05-10T01:00:37.634Z,8.13
2019-05-10T01:01:37.700Z,8.28
2019-05-10T01:02:37.634Z,8.28
2019-05-10T01:03:37.647Z,8.21
2019-05-10T01:04:37.606Z,8.13
2019-05-10T01:05:37.592Z,8.24
2019-05-10T01:06:37.574Z,8.19
2019-05-10T01:07:37.577Z,8.13
2019-05-10T01:08:37.562Z,8.13
2019-05-10T01:09:37.539Z,8.12
2019-05-10T01:10:37.556Z,8.16
2019-05-10T01:11:37.514Z,8.12
2019-05-10T01:12:37.501Z,8.19
2019-05-10T01:13:37.553Z,8.19
2019-05-10T01:14:37.484Z,8.20
2019-05-10T01:15:37.485Z,8.12
2019-05-10T01:16:37.459Z,8.16
2019-05-10T01:17:37.456Z,8.09
2019-05-10T01:18:37.432Z,8.14
2019-05-10T01:19:37.485Z,8.14
2019-05-10T01:20:37.422Z,8.12
2019-05-10T01:21:37.416Z,7.98
2019-05-10T01:22:37.424Z,8.12
2019-05-10T01:23:37.374Z,8.14
2019-05-10T01:24:37.383Z,8.13
2019-05-10T01:25:37.400Z,8.13
2019-05-10T01:26:37.343Z,8.14
2019-05-10T01:27:37.333Z,8.12
2019-05-10T01:28:37.368Z,8.16
2019-05-10T01:29:37.319Z,8.16
2019-05-10T01:30:37.301Z,8.16
2019-05-10T01:31:37.331Z,8.14
2019-05-10T01:32:37.313Z,8.16
2019-05-10T01:33:37.285Z,8.16
2019-05-10T01:34:37.256Z,8.20
2019-05-10T01:35:37.271Z,8.19
2019-05-10T01:36:37.241Z,8.13
2019-05-10T01:37:37.269Z,8.16
2019-05-10T01:38:37.214Z,8.31
2019-05-10T01:39:37.208Z,8.13
2019-05-10T01:40:37.197Z,8.24
2019-05-10T01:41:37.176Z,8.19
2019-05-10T01:42:37.173Z,8.21
2019-05-10T01:43:37.220Z,8.42
2019-05-10T01:44:37.163Z,8.39
2019-05-10T01:45:37.136Z,8.52
2019-05-10T01:46:37.131Z,8.46
2019-05-10T01:47:37.125Z,8.60
2019-05-10T01:48:37.133Z,8.56
2019-05-10T01:49:37.154Z,8.67
2019-05-10T01:50:37.118Z,8.67
2019-05-10T01:51:37.086Z,8.77
2019-05-10T01:52:37.071Z,8.83
2019-05-10T01:53:37.067Z,8.80
2019-05-10T01:54:37.049Z,8.80
2019-05-10T01:55:50.940Z,8.86
2019-05-10T01:56:38.016Z,8.83
2019-05-10T01:57:37.011Z,8.85
2019-05-10T01:58:37.018Z,8.89
2019-05-10T01:59:36.995Z,8.98
2019-05-10T02:00:36.985Z,8.96
2019-05-10T02:01:37.001Z,8.99
2019-05-10T02:02:36.965Z,8.93
2019-05-10T02:03:36.950Z,8.89
2019-05-10T02:04:36.958Z,8.88
2019-05-10T02:05:36.927Z,8.96
2019-05-10T02:06:36.926Z,8.89
2019-05-10T02:07:36.952Z,8.98
2019-05-10T02:08:36.913Z,8.95
2019-05-10T02:09:36.884Z,8.96
2019-05-10T02:10:36.881Z,8.96
2019-05-10T02:11:36.865Z,8.95
2019-05-10T02:12:36.845Z,8.90
2019-05-10T02:13:36.881Z,8.89
2019-05-10T02:14:36.833Z,8.89
2019-05-10T02:15:36.813Z,8.89
2019-05-10T02:16:36.796Z,8.96
2019-05-10T02:17:36.820Z,8.93
2019-05-10T02:18:36.793Z,8.95
2019-05-10T02:19:36.848Z,8.95
2019-05-10T02:20:36.784Z,9.03
2019-05-10T02:21:36.758Z,8.99
2019-05-10T02:22:36.752Z,8.95
2019-05-10T02:23:36.725Z,8.99
2019-05-10T02:24:36.727Z,9.01
2019-05-10T02:25:36.769Z,8.96
2019-05-10T02:26:36.691Z,8.95
2019-05-10T02:27:36.683Z,8.96
2019-05-10T02:28:36.671Z,8.99
2019-05-10T02:29:36.715Z,9.03
2019-05-10T02:30:36.658Z,8.93
2019-05-10T02:31:36.695Z,8.93
2019-05-10T02:32:36.638Z,8.93
2019-05-10T02:33:36.624Z,8.95
2019-05-10T02:34:36.608Z,8.89
2019-05-10T02:35:36.604Z,8.95
2019-05-10T02:36:36.697Z,8.98
2019-05-10T02:37:36.666Z,8.96
2019-05-10T02:38:36.559Z,8.96
2019-05-10T02:39:36.561Z,8.95
2019-05-10T02:40:36.546Z,8.96
2019-05-10T02:41:36.557Z,9.04
2019-05-10T02:42:36.537Z,9.08
2019-05-10T02:43:36.557Z,9.06
2019-05-10T02:44:36.497Z,9.06
2019-05-10T02:45:36.486Z,9.08
2019-05-10T02:46:36.489Z,9.03
2019-05-10T02:47:36.456Z,9.08
2019-05-10T02:48:36.464Z,9.06
2019-05-10T02:49:36.478Z,9.12
2019-05-10T02:50:36.444Z,9.11
2019-05-10T02:51:36.423Z,9.22
2019-05-10T02:52:36.441Z,9.11
2019-05-10T02:53:36.408Z,9.14
2019-05-10T02:54:36.408Z,9.08
2019-05-10T02:55:36.454Z,9.12
2019-05-10T02:56:36.370Z,9.23
2019-05-10T02:57:36.370Z,9.15
2019-05-10T02:58:36.354Z,9.15
2019-05-10T02:59:36.342Z,9.27
2019-05-10T03:00:36.366Z,9.26
2019-05-10T03:01:36.422Z,9.30
2019-05-10T03:02:36.310Z,9.30
2019-05-10T03:03:36.300Z,9.30
2019-05-10T03:04:36.288Z,9.29
2019-05-10T03:05:36.271Z,9.33
2019-05-10T03:06:36.270Z,9.36
2019-05-10T03:07:36.359Z,9.32
2019-05-10T03:08:36.242Z,9.32
2019-05-10T03:09:36.250Z,9.40
2019-05-10T03:10:36.218Z,9.32
2019-05-10T03:11:36.252Z,9.24
2019-05-10T03:12:36.194Z,9.26
2019-05-10T03:13:36.229Z,9.32
2019-05-10T03:14:36.200Z,9.32
2019-05-10T03:15:36.286Z,9.34
2019-05-10T03:16:36.153Z,9.32
2019-05-10T03:17:36.132Z,9.24
2019-05-10T03:18:36.127Z,9.27
2019-05-10T03:19:36.142Z,9.32
2019-05-10T03:20:36.102Z,9.36
2019-05-10T03:21:36.094Z,9.32
2019-05-10T03:22:36.104Z,9.26
2019-05-10T03:23:36.087Z,9.29
2019-05-10T03:24:36.064Z,9.24
2019-05-10T03:25:36.130Z,9.24
2019-05-10T03:26:50.319Z,9.29
2019-05-10T03:27:37.059Z,9.18
2019-05-10T03:28:36.034Z,9.22
2019-05-10T03:29:36.050Z,9.14
2019-05-10T03:30:35.994Z,9.15
2019-05-10T03:31:36.031Z,9.26
2019-05-10T03:32:35.977Z,9.23
2019-05-10T03:33:36.081Z,9.15
2019-05-10T03:34:35.962Z,9.30
2019-05-10T03:35:35.945Z,9.15
2019-05-10T03:36:35.930Z,9.26
2019-05-10T03:37:35.955Z,9.22
2019-05-10T03:38:35.927Z,9.29
2019-05-10T03:39:35.894Z,9.22
2019-05-10T03:40:35.895Z,9.27
2019-05-10T03:41:35.887Z,9.26
2019-05-10T03:42:35.892Z,9.24
2019-05-10T03:43:35.912Z,9.32
2019-05-10T03:44:35.878Z,9.33
2019-05-10T03:45:35.850Z,9.23
2019-05-10T03:46:35.819Z,9.29
2019-05-10T03:47:35.843Z,9.30
2019-05-10T03:48:35.804Z,9.30
2019-05-10T03:49:35.953Z,9.32
2019-05-10T03:50:35.785Z,9.32
2019-05-10T03:51:35.765Z,9.27
2019-05-10T03:52:35.751Z,9.24
2019-05-10T03:53:35.741Z,9.32
2019-05-10T03:54:35.743Z,9.32
2019-05-10T03:55:35.790Z,9.33
2019-05-10T03:56:35.717Z,9.27
2019-05-10T03:57:35.762Z,9.23
2019-05-10T03:58:35.702Z,9.34
2019-05-10T03:59:35.675Z,9.27
2019-05-10T04:00:35.671Z,9.34
2019-05-10T04:01:35.757Z,9.41
2019-05-10T04:02:35.647Z,9.26
2019-05-10T04:03:35.649Z,9.30
2019-05-10T04:04:35.663Z,9.36
2019-05-10T04:05:35.780Z,9.29
2019-05-10T04:06:35.617Z,9.30
2019-05-10T04:07:35.637Z,9.40
2019-05-10T04:08:35.638Z,9.44
2019-05-10T04:09:35.570Z,9.40
2019-05-10T04:10:35.561Z,9.50
2019-05-10T04:11:35.543Z,9.55
2019-05-10T04:12:35.550Z,9.54
2019-05-10T04:13:35.583Z,9.51
2019-05-10T04:14:35.513Z,9.54
2019-05-10T04:15:35.501Z,9.52
2019-05-10T04:16:35.608Z,9.50
2019-05-10T04:17:35.475Z,9.63
2019-05-10T04:18:35.642Z,9.59
2019-05-10T04:19:35.490Z,9.59
2019-05-10T04:20:35.482Z,9.59
2019-05-10T04:21:35.444Z,9.57
2019-05-10T04:22:35.460Z,9.60
2019-05-10T04:23:35.429Z,9.57
2019-05-10T04:24:36.404Z,9.57
2019-05-10T04:25:35.445Z,9.62
2019-05-10T04:26:35.416Z,9.63
2019-05-10T04:27:35.401Z,9.66
2019-05-10T04:28:35.367Z,9.66
2019-05-10T04:29:35.393Z,9.66
2019-05-10T04:30:35.381Z,9.67
2019-05-10T04:31:35.382Z,9.69
2019-05-10T04:32:35.321Z,9.70
2019-05-10T04:33:35.320Z,9.70
2019-05-10T04:34:35.327Z,9.75
2019-05-10T04:35:35.303Z,9.72
2019-05-10T04:36:35.288Z,9.75
2019-05-10T04:37:35.296Z,9.65
2019-05-10T04:38:35.261Z,9.75
2019-05-10T04:39:35.356Z,9.72
2019-05-10T04:40:35.300Z,9.77
2019-05-10T04:41:35.231Z,9.75
2019-05-10T04:42:35.232Z,9.75
2019-05-10T04:43:35.250Z,9.70
2019-05-10T04:44:35.219Z,9.77
2019-05-10T04:45:35.181Z,9.77
2019-05-10T04:46:35.176Z,9.77
2019-05-10T04:47:35.155Z,9.81
2019-05-10T04:48:35.146Z,9.70
2019-05-10T04:49:35.177Z,9.77
2019-05-10T04:50:35.139Z,9.73
2019-05-10T04:51:35.109Z,9.78
2019-05-10T04:52:35.104Z,9.77
2019-05-10T04:53:35.130Z,9.78
2019-05-10T04:54:35.102Z,9.80
2019-05-10T04:55:35.095Z,9.78
2019-05-10T04:56:35.102Z,9.78
2019-05-10T04:57:49.298Z,9.77
2019-05-10T04:58:36.034Z,9.73
2019-05-10T04:59:35.026Z,9.75
2019-05-10T05:00:35.031Z,9.75
2019-05-10T05:01:35.032Z,9.80
2019-05-10T05:02:34.992Z,9.77
2019-05-10T05:03:35.015Z,9.77
2019-05-10T05:04:34.983Z,9.90
2019-05-10T05:05:34.970Z,9.88
2019-05-10T05:06:34.947Z,9.85
2019-05-10T05:07:34.962Z,9.91
2019-05-10T05:08:34.941Z,9.90
2019-05-10T05:09:34.931Z,9.90
2019-05-10T05:10:34.901Z,9.99
2019-05-10T05:11:34.898Z,10.03
2019-05-10T05:12:34.886Z,10.02
2019-05-10T05:13:35.558Z,10.02
2019-05-10T05:14:34.859Z,10.02
2019-05-10T05:15:34.893Z,9.94
2019-05-10T05:16:34.839Z,10.09
2019-05-10T05:17:35.223Z,10.06
2019-05-10T05:18:34.822Z,10.02
2019-05-10T05:19:34.877Z,10.14
2019-05-10T05:20:34.814Z,10.17
2019-05-10T05:21:34.844Z,10.17
2019-05-10T05:22:34.778Z,10.28
2019-05-10T05:23:34.832Z,10.27
2019-05-10T05:24:34.746Z,10.17
2019-05-10T05:25:35.108Z,10.26
2019-05-10T05:26:35.733Z,10.35
2019-05-10T05:27:34.726Z,10.28
2019-05-10T05:28:34.755Z,10.38
2019-05-10T05:29:34.787Z,10.42
2019-05-10T05:30:38.528Z,10.39
2019-05-10T05:31:34.839Z,10.36
2019-05-10T05:32:38.434Z,10.35
2019-05-10T05:33:35.655Z,10.35
2019-05-10T05:34:34.656Z,10.34
2019-05-10T05:35:34.627Z,10.42
2019-05-10T05:36:34.609Z,10.41
2019-05-10T05:37:34.734Z,10.39
2019-05-10T05:38:34.594Z,10.39
2019-05-10T05:39:34.576Z,10.31
2019-05-10T05:40:34.565Z,10.35
2019-05-10T05:41:47.765Z,10.31
2019-05-10T05:42:35.597Z,10.28
2019-05-10T05:43:34.531Z,10.36
2019-05-10T05:44:34.542Z,10.36
2019-05-10T05:45:35.624Z,10.38
2019-05-10T05:46:34.501Z,10.31
2019-05-10T05:47:37.682Z,10.41
2019-05-10T05:48:40.413Z,10.28
2019-05-10T05:49:35.468Z,10.43
2019-05-10T05:50:34.457Z,10.43
2019-05-10T05:51:34.443Z,10.39
2019-05-10T05:52:34.434Z,10.39
2019-05-10T05:53:35.932Z,10.39
2019-05-10T05:54:35.462Z,10.55
2019-05-10T05:55:34.403Z,10.49
2019-05-10T05:56:34.448Z,10.60
2019-05-10T05:57:34.394Z,10.54
2019-05-10T05:58:38.246Z,10.52
2019-05-10T05:59:35.392Z,10.62
2019-05-10T06:00:37.741Z,10.65
2019-05-10T06:01:35.342Z,10.67
2019-05-10T06:02:34.431Z,10.72
2019-05-10T06:03:34.331Z,10.70
2019-05-10T06:04:34.312Z,10.60
2019-05-10T06:05:37.136Z,10.67
2019-05-10T06:06:34.332Z,10.70
2019-05-10T06:07:37.963Z,10.70
2019-05-10T06:08:35.291Z,10.76
2019-05-10T06:09:37.728Z,10.79
2019-05-10T06:10:35.240Z,10.80
2019-05-10T06:11:35.824Z,10.80
2019-05-10T06:12:34.274Z,10.79
2019-05-10T06:13:34.215Z,10.80
2019-05-10T06:14:34.207Z,10.75
2019-05-10T06:15:34.239Z,10.80
2019-05-10T06:16:34.180Z,10.79
2019-05-10T06:17:34.171Z,10.79
2019-05-10T06:18:34.215Z,10.76
2019-05-10T06:19:34.146Z,10.75
2019-05-10T06:20:38.121Z,10.76
2019-05-10T06:21:35.118Z,10.79
2019-05-10T06:22:38.330Z,10.76
2019-05-10T06:23:35.751Z,10.79
2019-05-10T06:24:34.522Z,10.80
2019-05-10T06:25:42.767Z,10.75
2019-05-10T06:26:35.062Z,10.76
2019-05-10T06:27:35.421Z,10.80
2019-05-10T06:28:57.705Z,10.76
2019-05-10T06:29:35.104Z,10.78
2019-05-10T06:30:34.016Z,10.76
2019-05-10T06:31:34.007Z,10.76
2019-05-10T06:32:34.014Z,10.78
2019-05-10T06:33:33.988Z,10.72
2019-05-10T06:34:38.735Z,10.72
2019-05-10T06:35:35.010Z,10.82
2019-05-10T06:36:33.973Z,10.80
2019-05-10T06:37:34.002Z,10.83
2019-05-10T06:38:34.097Z,10.78
2019-05-10T06:39:34.467Z,10.91
2019-05-10T06:40:41.219Z,10.80
2019-05-10T06:41:34.946Z,10.80
2019-05-10T06:42:34.616Z,10.75
2019-05-10T06:43:33.877Z,10.85
2019-05-10T06:44:33.910Z,10.82
2019-05-10T06:45:33.895Z,10.76
2019-05-10T06:46:33.867Z,10.83
2019-05-10T06:47:33.895Z,10.79
2019-05-10T06:48:33.884Z,10.78
2019-05-10T06:49:33.833Z,10.87
2019-05-10T06:50:33.795Z,10.85
2019-05-10T06:51:33.783Z,11.01
2019-05-10T06:52:33.798Z,10.94
2019-05-10T06:53:33.805Z,11.05
2019-05-10T06:54:33.818Z,11.05
2019-05-10T06:55:33.788Z,11.08
2019-05-10T06:56:33.729Z,11.04
2019-05-10T06:57:33.746Z,11.08
2019-05-10T06:58:36.285Z,11.08
2019-05-10T06:59:33.741Z,11.12
2019-05-10T07:00:38.176Z,11.18
2019-05-10T07:01:38.307Z,11.13
2019-05-10T07:02:34.661Z,11.23
2019-05-10T07:03:33.653Z,11.09
2019-05-10T07:04:37.922Z,11.08
2019-05-10T07:05:34.825Z,11.09
2019-05-10T07:06:33.627Z,11.16
2019-05-10T07:07:43.999Z,11.13
2019-05-10T07:08:43.826Z,11.22
2019-05-10T07:10:00.395Z,11.12
2019-05-10T07:10:34.582Z,11.08
2019-05-10T07:11:33.613Z,11.23
2019-05-10T07:12:33.576Z,11.18
2019-05-10T07:13:33.571Z,11.23
2019-05-10T07:14:33.551Z,11.23
2019-05-10T07:15:35.640Z,11.28
2019-05-10T07:16:34.572Z,11.23
2019-05-10T07:17:41.384Z,11.23
2019-05-10T07:18:34.499Z,11.19
2019-05-10T07:19:34.791Z,11.27
2019-05-10T07:20:34.498Z,11.33
2019-05-10T07:21:33.510Z,11.30
2019-05-10T07:22:33.495Z,11.48
2019-05-10T07:23:33.444Z,11.46
2019-05-10T07:24:33.445Z,11.49
2019-05-10T07:25:37.615Z,11.54
2019-05-10T07:26:34.407Z,11.54
2019-05-10T07:27:36.657Z,11.64
2019-05-10T07:28:33.423Z,11.67
2019-05-10T07:29:41.826Z,11.82
2019-05-10T07:30:34.363Z,11.82
2019-05-10T07:31:33.372Z,11.91
2019-05-10T07:32:33.362Z,12.07
2019-05-10T07:33:37.211Z,12.08
2019-05-10T07:34:34.354Z,12.11
2019-05-10T07:35:36.993Z,12.18
2019-05-10T07:36:34.308Z,12.18
2019-05-10T07:37:33.317Z,12.28
2019-05-10T07:38:33.294Z,12.33
2019-05-10T07:39:33.285Z,12.36
2019-05-10T07:40:33.282Z,12.53
2019-05-10T07:41:33.261Z,12.50
2019-05-10T07:42:33.240Z,12.44
2019-05-10T07:43:33.223Z,12.28
2019-05-10T07:44:33.218Z,12.29
2019-05-10T07:45:33.248Z,12.28
2019-05-10T07:46:33.225Z,12.38
2019-05-10T07:47:33.227Z,12.41
2019-05-10T07:48:33.165Z,12.43
2019-05-10T07:49:33.163Z,12.55
2019-05-10T07:50:33.148Z,12.73
2019-05-10T07:51:33.136Z,12.88
2019-05-10T07:52:36.299Z,12.96
2019-05-10T07:53:34.114Z,12.90
2019-05-10T07:54:37.728Z,12.55
2019-05-10T07:55:34.086Z,12.58
2019-05-10T07:56:33.143Z,12.50
2019-05-10T07:57:33.059Z,12.63
2019-05-10T07:58:38.152Z,12.62
2019-05-10T07:59:49.662Z,12.76
2019-05-10T08:00:37.995Z,12.58
2019-05-10T08:01:34.897Z,12.61
2019-05-10T08:02:33.030Z,12.77
2019-05-10T08:03:35.551Z,12.87
2019-05-10T08:04:34.043Z,12.83
2019-05-10T08:05:32.981Z,12.68
2019-05-10T08:06:40.196Z,12.71
2019-05-10T08:07:33.952Z,12.69
2019-05-10T08:08:32.951Z,12.84
2019-05-10T08:09:37.208Z,12.83
2019-05-10T08:10:33.954Z,12.80
2019-05-10T08:11:32.934Z,12.87
2019-05-10T08:12:35.134Z,12.91
2019-05-10T08:13:33.886Z,12.86
2019-05-10T08:14:32.881Z,12.90
2019-05-10T08:15:34.793Z,12.98
2019-05-10T08:16:32.926Z,12.96
2019-05-10T08:17:35.457Z,12.81
2019-05-10T08:18:33.847Z,12.63
2019-05-10T08:19:37.447Z,12.63
2019-05-10T08:20:46.461Z,12.62
2019-05-10T08:21:32.815Z,12.76
2019-05-10T08:22:41.611Z,12.99
2019-05-10T08:23:33.788Z,12.93
2019-05-10T08:24:35.492Z,13.05
2019-05-10T08:25:36.326Z,13.13
2019-05-10T08:26:33.759Z,13.17
2019-05-10T08:27:32.741Z,12.93
2019-05-10T08:28:36.457Z,12.91
2019-05-10T08:29:33.724Z,12.98
2019-05-10T08:30:33.253Z,12.90
2019-05-10T08:31:40.394Z,12.96
2019-05-10T08:32:34.911Z,12.83
2019-05-10T08:33:32.876Z,12.88
2019-05-10T08:34:35.321Z,12.87
2019-05-10T08:35:35.869Z,12.95
2019-05-10T08:36:37.233Z,12.88
2019-05-10T08:37:37.739Z,12.83
2019-05-10T08:38:32.612Z,12.81
2019-05-10T08:39:43.922Z,12.83
2019-05-10T08:40:37.720Z,12.88
2019-05-10T08:41:32.802Z,12.96
2019-05-10T08:42:43.823Z,12.99
2019-05-10T08:43:39.021Z,13.05
2019-05-10T08:44:33.545Z,13.17
2019-05-10T08:45:32.619Z,13.13
2019-05-10T08:46:40.192Z,13.27
2019-05-10T08:47:33.505Z,13.21
2019-05-10T08:48:33.067Z,13.35
2019-05-10T08:49:44.283Z,13.47
2019-05-10T08:50:48.828Z,13.58
2019-05-10T08:51:34.550Z,13.63
2019-05-10T08:52:34.005Z,13.79
2019-05-10T08:53:32.955Z,13.83
2019-05-10T08:54:32.922Z,14.08
2019-05-10T08:55:32.415Z,13.96
2019-05-10T08:56:33.340Z,13.96
2019-05-10T08:57:34.798Z,14.11
2019-05-10T08:58:37.136Z,14.13
2019-05-10T08:59:33.977Z,14.19
2019-05-10T09:00:48.978Z,14.28
2019-05-10T09:01:44.781Z,14.38
2019-05-10T09:02:33.374Z,14.46
2019-05-10T09:03:32.382Z,14.53
2019-05-10T09:04:42.268Z,14.77
2019-05-10T09:05:34.043Z,15.04
2019-05-10T09:06:32.833Z,15.26
2019-05-10T09:07:34.981Z,15.30
2019-05-10T09:08:34.705Z,15.43
2019-05-10T09:09:33.892Z,15.63
2019-05-10T09:10:33.266Z,15.85
2019-05-10T09:11:32.784Z,15.96
2019-05-10T09:12:32.947Z,15.72
2019-05-10T09:13:37.078Z,15.69
2019-05-10T09:14:33.240Z,15.72
2019-05-10T09:15:33.093Z,15.68
2019-05-10T09:16:39.208Z,15.88
2019-05-10T09:17:33.172Z,16.09
2019-05-10T09:18:33.159Z,15.83
2019-05-10T09:19:37.465Z,15.69
2019-05-10T09:20:33.204Z,15.70
2019-05-10T09:21:32.312Z,15.60
2019-05-10T09:22:38.242Z,15.35
2019-05-10T09:23:33.107Z,15.23
2019-05-10T09:24:35.002Z,14.97
2019-05-10T09:25:33.827Z,14.83
2019-05-10T09:26:32.315Z,14.83
2019-05-10T09:27:33.393Z,14.93
2019-05-10T09:28:32.294Z,14.82
2019-05-10T09:29:37.102Z,14.73
2019-05-10T09:30:35.510Z,14.66
2019-05-10T09:31:32.665Z,14.64
2019-05-10T09:32:33.407Z,14.92
2019-05-10T09:33:32.090Z,14.64
2019-05-10T09:34:32.410Z,14.79
2019-05-10T09:35:32.971Z,14.90
2019-05-10T09:36:36.018Z,14.95
2019-05-10T09:37:32.130Z,14.89
2019-05-10T09:38:37.166Z,14.96
2019-05-10T09:39:32.935Z,15.05
2019-05-10T09:40:32.780Z,14.89
2019-05-10T09:41:33.719Z,14.67
2019-05-10T09:42:39.765Z,14.70
2019-05-10T09:43:32.977Z,14.77
2019-05-10T09:44:32.951Z,14.87
2019-05-10T09:45:32.415Z,14.83
2019-05-10T09:46:32.468Z,14.74
2019-05-10T09:47:33.032Z,14.67
2019-05-10T09:48:33.296Z,14.70
2019-05-10T09:49:33.266Z,14.69
2019-05-10T09:50:41.040Z,14.99
2019-05-10T09:51:33.303Z,15.03
2019-05-10T09:52:31.798Z,15.05
2019-05-10T09:53:31.794Z,15.05
2019-05-10T09:54:33.581Z,14.99
2019-05-10T09:55:31.802Z,14.78
2019-05-10T09:56:32.775Z,14.59
2019-05-10T09:57:32.739Z,14.46
2019-05-10T09:58:31.728Z,14.44
2019-05-10T09:59:31.717Z,14.45
2019-05-10T10:00:31.728Z,14.36
2019-05-10T10:01:31.716Z,14.38
2019-05-10T10:02:33.922Z,14.18
2019-05-10T10:03:42.338Z,14.22
2019-05-10T10:04:32.662Z,14.21
2019-05-10T10:05:31.646Z,14.01
2019-05-10T10:06:31.644Z,14.08
2019-05-10T10:07:33.449Z,13.97
2019-05-10T10:08:31.621Z,14.03
2019-05-10T10:09:37.345Z,13.97
2019-05-10T10:10:32.704Z,14.01
2019-05-10T10:11:31.605Z,14.11
2019-05-10T10:12:31.572Z,14.03
2019-05-10T10:13:42.641Z,14.08
2019-05-10T10:14:37.755Z,14.12
2019-05-10T10:15:34.275Z,14.09
2019-05-10T10:16:31.542Z,14.13
2019-05-10T10:17:40.264Z,14.16
2019-05-10T10:18:32.549Z,14.44
2019-05-10T10:19:31.505Z,14.23
2019-05-10T10:20:36.097Z,14.36
2019-05-10T10:21:35.525Z,14.36
2019-05-10T10:22:32.482Z,14.40
2019-05-10T10:23:34.916Z,14.56
2019-05-10T10:24:32.519Z,14.56
2019-05-10T10:25:35.205Z,14.46
2019-05-10T10:26:32.462Z,14.46
2019-05-10T10:27:34.614Z,14.41
2019-05-10T10:28:31.401Z,14.79
2019-05-10T10:29:34.015Z,15.26
2019-05-10T10:30:31.699Z,15.35
2019-05-10T10:31:33.560Z,15.41
2019-05-10T10:32:34.807Z,15.76
2019-05-10T10:33:31.356Z,15.80
2019-05-10T10:34:32.618Z,16.26
2019-05-10T10:35:32.360Z,16.57
2019-05-10T10:36:31.339Z,16.72
2019-05-10T10:37:31.499Z,16.67
2019-05-10T10:38:31.507Z,16.62
2019-05-10T10:39:31.292Z,16.51
2019-05-10T10:40:35.376Z,16.33
2019-05-10T10:41:32.364Z,16.44
2019-05-10T10:42:31.263Z,16.62
2019-05-10T10:43:31.235Z,16.72
2019-05-10T10:44:31.232Z,16.77
2019-05-10T10:45:31.234Z,16.69
2019-05-10T10:46:34.430Z,16.69
2019-05-10T10:47:32.361Z,16.90
2019-05-10T10:48:31.204Z,17.07
2019-05-10T10:49:32.111Z,17.24
2019-05-10T10:50:31.159Z,17.24
2019-05-10T10:51:32.335Z,16.94
2019-05-10T10:52:31.134Z,16.92
2019-05-10T10:53:31.160Z,16.74
2019-05-10T10:54:36.511Z,16.42
2019-05-10T10:55:36.599Z,16.26
2019-05-10T10:56:32.117Z,16.16
2019-05-10T10:57:31.078Z,16.00
2019-05-10T10:58:31.069Z,15.87
2019-05-10T10:59:31.111Z,15.80
2019-05-10T11:00:31.110Z,15.69
2019-05-10T11:01:46.211Z,15.68
2019-05-10T11:02:33.892Z,16.16
2019-05-10T11:03:32.568Z,16.42
2019-05-10T11:04:31.022Z,16.39
2019-05-10T11:05:31.196Z,16.55
2019-05-10T11:06:30.994Z,16.51
2019-05-10T11:07:33.798Z,16.28
2019-05-10T11:08:33.247Z,16.28
2019-05-10T11:09:31.190Z,16.22
2019-05-10T11:10:31.328Z,16.09
2019-05-10T11:11:38.783Z,15.98
2019-05-10T11:12:31.927Z,15.98
2019-05-10T11:13:43.959Z,15.99
2019-05-10T11:14:39.762Z,16.26
2019-05-10T11:15:35.976Z,16.33
2019-05-10T11:16:30.883Z,16.21
2019-05-10T11:17:30.900Z,15.98
2019-05-10T11:18:31.775Z,15.91
2019-05-10T11:19:31.710Z,15.80
2019-05-10T11:20:31.769Z,15.83
2019-05-10T11:21:33.254Z,15.80
2019-05-10T11:22:31.807Z,15.87
2019-05-10T11:23:37.551Z,16.02
2019-05-10T11:24:31.781Z,16.14
2019-05-10T11:25:30.793Z,16.06
2019-05-10T11:26:34.961Z,16.17
2019-05-10T11:27:31.001Z,16.28
2019-05-10T11:28:38.937Z,16.73
2019-05-10T11:29:31.758Z,16.91
2019-05-10T11:30:32.475Z,16.87
2019-05-10T11:31:31.297Z,16.61
2019-05-10T11:32:31.463Z,16.33
2019-05-10T11:33:33.544Z,16.22
2019-05-10T11:34:37.475Z,15.84
2019-05-10T11:35:34.479Z,15.59
2019-05-10T11:36:31.318Z,15.62
2019-05-10T11:37:35.676Z,15.59
2019-05-10T11:38:31.916Z,15.65
2019-05-10T11:39:33.152Z,16.14
2019-05-10T11:40:34.898Z,16.16
2019-05-10T11:41:31.463Z,16.17
2019-05-10T11:42:31.063Z,16.43
2019-05-10T11:43:31.374Z,16.61
2019-05-10T11:44:31.717Z,16.54
2019-05-10T11:45:32.231Z,16.34
2019-05-10T11:46:31.131Z,16.26
2019-05-10T11:47:31.228Z,16.16
2019-05-10T11:48:36.758Z,16.09
2019-05-10T11:49:31.513Z,16.16
2019-05-10T11:50:34.885Z,16.13
2019-05-10T11:51:31.539Z,16.13
2019-05-10T11:52:34.879Z,16.14
2019-05-10T11:53:31.668Z,16.40
2019-05-10T11:54:31.895Z,16.29
2019-05-10T11:55:30.957Z,16.18
2019-05-10T11:56:32.315Z,16.14
2019-05-10T11:57:32.914Z,16.14
2019-05-10T11:58:31.149Z,15.90
2019-05-10T11:59:33.949Z,16.32
2019-05-10T12:00:34.218Z,16.69
2019-05-10T12:01:30.380Z,17.32
2019-05-10T12:03:31.914Z,18.03
2019-05-10T12:04:38.200Z,18.12
2019-05-10T12:05:31.966Z,18.45
2019-05-10T12:06:32.022Z,18.70
2019-05-10T12:07:35.140Z,18.71
2019-05-10T12:08:31.301Z,18.79
2019-05-10T12:09:31.611Z,18.58
2019-05-10T12:10:31.986Z,18.12
2019-05-10T12:11:33.803Z,17.56
2019-05-10T12:12:50.158Z,17.31
2019-05-10T12:13:32.725Z,17.02
2019-05-10T12:14:30.295Z,16.73
2019-05-10T12:15:31.811Z,16.42
2019-05-10T12:16:33.440Z,16.21
2019-05-10T12:17:30.319Z,15.98
2019-05-10T12:18:32.482Z,15.88
2019-05-10T12:19:36.864Z,15.83
2019-05-10T12:21:33.150Z,15.95
2019-05-10T12:23:31.785Z,16.03
2019-05-10T12:24:45.217Z,16.00
2019-05-10T12:25:46.230Z,15.73
2019-05-10T12:26:16.486Z,16.14
2019-05-10T12:26:16.516Z,17.56
2019-05-10T12:26:31.416Z,15.76
2019-05-10T12:27:43.987Z,15.73
2019-05-10T12:28:35.295Z,15.70
2019-05-10T12:29:31.709Z,15.88
2019-05-10T12:30:34.835Z,15.93
2019-05-10T12:31:31.196Z,15.87
2019-05-10T12:32:33.505Z,15.84
2019-05-10T12:33:31.632Z,15.72
2019-05-10T12:34:31.150Z,15.69
2019-05-10T12:35:35.526Z,15.70
2019-05-10T12:36:31.445Z,15.65
2019-05-10T12:37:30.825Z,15.56
2019-05-10T12:38:32.178Z,15.48
2019-05-10T12:39:30.973Z,15.29
2019-05-10T12:40:31.414Z,15.36
2019-05-10T12:41:31.642Z,15.35
2019-05-10T12:42:31.709Z,15.43
2019-05-10T12:43:30.977Z,15.47
2019-05-10T12:44:33.270Z,15.45
2019-05-10T12:45:31.345Z,15.47
2019-05-10T12:46:30.729Z,15.59
2019-05-10T12:47:30.605Z,15.69
2019-05-10T12:48:31.702Z,15.70
2019-05-10T12:49:31.516Z,15.73
2019-05-10T12:50:29.878Z,15.54
2019-05-10T12:51:31.291Z,15.65
2019-05-10T12:52:32.025Z,15.62
2019-05-10T12:53:31.514Z,15.59
2019-05-10T12:54:31.638Z,15.56
2019-05-10T12:55:29.806Z,15.52
2019-05-10T12:56:35.153Z,15.52
2019-05-10T12:57:30.777Z,15.52
2019-05-10T12:58:29.768Z,15.69
2019-05-10T12:59:34.762Z,15.70
2019-05-10T13:00:30.751Z,15.96
2019-05-10T13:01:31.821Z,16.22
2019-05-10T13:02:29.731Z,16.76
2019-05-10T13:03:31.747Z,16.92